KBNA

Nashville International Airport

Nashville, Tennessee, USA
KBNA 132320Z 1400/1424 17011KT P6SM SCT050 SCT200 FM140400 15010KT P6SM VCSH OVC040 FM141000 12011KT 6SM -RA BR OVC025 FM141300 10011KT 4SM -RA BR OVC012 FM142100 07009KT P6SM VCSH OVC012
Issued Valid From Valid To
Dec-13 @ 23:20 UTC
(4 hours ago)
Dec-14 @ 00:00 UTC
(4 hours ago)
Dec-15 @ 00:00 UTC
(in 20 hours)
Dec-14 @ 00:00 to Dec-14 @ 04:00
KBNA 132320Z 1400/1424 17011KT P6SM SCT050 SCT200
Wind Visibility Clouds
170° at 11 knots Greater than 6 miles
  • Scattered at 5,000' AGL
  • Scattered at 20,000' AGL
From Dec-14 @ 04:00 to Dec-14 @ 10:00
FM140400 15010KT P6SM VCSH OVC040
Wind Visibility Clouds
150° at 10 knots Greater than 6 miles
  • Overcast at 4,000' AGL
From Dec-14 @ 10:00 to Dec-14 @ 13:00
FM141000 12011KT 6SM -RA BR OVC025
Wind Visibility Clouds Conditions
120° at 11 knots 6 miles
  • Overcast at 2,500' AGL
  • Light Rain
  • Mist
From Dec-14 @ 13:00 to Dec-14 @ 21:00
FM141300 10011KT 4SM -RA BR OVC012
Wind Visibility Clouds Conditions
100° at 11 knots 4 miles
  • Overcast at 1,200' AGL
  • Light Rain
  • Mist
From Dec-14 @ 21:00 to Dec-15 @ 00:00
FM142100 07009KT P6SM VCSH OVC012
Wind Visibility Clouds
70° at 9 knots Greater than 6 miles
  • Overcast at 1,200' AGL
KBNA 132320Z 1400/1424 17011KT P6SM SCT050 SCT200 FM140400 15010KT P6SM VCSH OVC040 FM141000 12011KT 6SM -RA BR OVC025 FM141300 10011KT 4SM -RA BR OVC012 FM142100 07009KT P6SM VCSH OVC012
Issued Dec-13 @ 23:20 UTC
(4 hours ago)
Valid From Dec-14 @ 00:00 UTC
(4 hours ago)
Valid To Dec-15 @ 00:00 UTC
(in 20 hours)
Dec-14 @ 00:00 - Dec-14 @ 04:00
Wind Visibility
170° at 11 knots Greater than 6 miles
Clouds
  • Scattered at 5,000' AGL
  • Scattered at 20,000' AGL
From Dec-14 @ 04:00 - Dec-14 @ 10:00
Wind Visibility
150° at 10 knots Greater than 6 miles
Clouds
  • Overcast at 4,000' AGL
From Dec-14 @ 10:00 - Dec-14 @ 13:00
Wind Visibility
120° at 11 knots 6 miles
Clouds
  • Overcast at 2,500' AGL
Conditions
  • Light Rain
  • Mist
From Dec-14 @ 13:00 - Dec-14 @ 21:00
Wind Visibility
100° at 11 knots 4 miles
Clouds
  • Overcast at 1,200' AGL
Conditions
  • Light Rain
  • Mist
From Dec-14 @ 21:00 - Dec-15 @ 00:00
Wind Visibility
70° at 9 knots Greater than 6 miles
Clouds
  • Overcast at 1,200' AGL